Sarajevo

Airport
ICAO code: 
LQSA
IATA Code: 
SJJ
Summary
ICAO Region: 
EUR
Location: 
Butmir, Sarajevo
Serving: 
Sarajevo
Elevation: 
1708 ft
Coordinates: 
Aerial View: 
43° 49' 28.561" N, 18° 19' 53.397" E
Metar
Observation
LQSA 070300Z 30005KT 4000 -SN SCT008 OVC025 00/00 Q1008
Station
Sarajevo
Date/Time
2021-12-07 03:00:00
Wind direction
300°
Wind speed
05 kts
Lowest cloud amount
scattered clouds
Temperature
0°C
Dew point
0°C
Humidity
100%
QNH
1008 hPa
Weather condition
n/a

Description

Sarajevo International Airport, also known as Butmir Airport, is the main international airport in Bosnia and Herzegovina, located 3.3 nm southwest of the capital city of Sarajevo in the suburb of Butmir.

Climatology

Humid continental climate (Köppen climate classification Dfa) - characterized by four seasons: cold, windy, snowy winters, mild springs, hot, humid summers, and crisp and relatively short autumns. Precipitation reaches its lowest in January and February and peaks in summer and latter half of spring.

Runways

Designator Length Width Surface Rops
12/30 2641 46 ASP Yes/Yes
Airport map: 
Aerial View: 

SKYbrary Partners:

Safety knowledge contributed by: